Airfield :
LOGIN :

Register | Disclaimer

   EN    FR    IT 

 










Legend :    VFR   Marginal VFR   IFR   Intensive IFR   Very Intensive IFR
Visi :
Ceiling :
>= 8 km
>= 3000ft
5 to 8 km
1000 to 3000 ft
1500m to 5 km
500 to 1000 ft
800 to 1500m
200 to 500 ft
< 800m
< 200 ft
Symbols :   Thunderstorms  Fog  Heavy snow  Heavy precipitations  Wind > 20 kt
SIGMETs :     Misc.  Thunderstorms  Icing  Turbulence  Mountain Waves  Volcanic Ashes







- Airport Elevation : 526 ft
- IATA code : LTN
- Download approach charts


EGGW - London Luton

CURRENT METAR :
  • 231350Z AUTO 33013KT 9999 NCD 21/01 Q1027

EXPIRED METARs :
  • 231320Z AUTO 31010KT 9999 NCD 21/03 Q1027
  • 231250Z AUTO 31012KT 260V330 9999 NCD 22/02 Q1028
  • 231220Z AUTO 32009KT 9999 NCD 20/03 Q1028
  • 231150Z AUTO 33010KT 280V350 9999 NCD 21/02 Q1028
  • 231120Z AUTO 33010KT 280V350 9999 NCD 20/M00 Q1028

TAF TAF EGGW
Valid from the 23 at 12:00 until the 24 at 12:00 UTC


231055Z 2312/2412 30010KT CAVOK
BECMG 2409/2412 01005KT
ATIS : +44 1582 395 204
No reported NOTAMs for that airfield.



MET'MAP, your aeronautical weather chart ! - Copyright ORBIFLY December 2007 - Disclaimer

ORBIFLY MET'MAP TEAM :

Programming & Development : Alexandra Zaïnal
Concept & Development : Baudouin d'Aumeries
Co-Development & Prog : Marc-Olivier Méhu
Technical & hardware support : Manuel Goepfert

Contact : metmap@orbifly.com




SOURCES & CREDITS :

   NOAA